Time,TemperatureF,DewpointF,PressureIn,WindDirection,WindDirectionDegrees,WindSpeedMPH,WindSpeedGustMPH,Humidity,HourlyPrecipIn,Conditions,Clouds,dailyrainin,SoftwareType,DateUTC
2013-09-03 00:00:00,76.3,54.5,28.52,East,90,1.0,3.0,47,0.00,,,0.00,meteohub,2013-09-03 05:00:00,
2013-09-03 00:05:00,76.3,55.8,28.52,NE,45,1.0,2.0,49,0.00,,,0.00,meteohub,2013-09-03 05:05:00,
2013-09-03 00:10:00,75.9,55.4,28.51,NE,45,1.0,2.0,49,0.00,,,0.00,meteohub,2013-09-03 05:10:00,
2013-09-03 00:15:00,75.7,55.2,28.52,NE,45,1.0,1.0,49,0.00,,,0.00,meteohub,2013-09-03 05:15:00,
2013-09-03 00:20:00,75.9,55.4,28.52,East,90,1.0,1.0,49,0.00,,,0.00,meteohub,2013-09-03 05:20:00,
2013-09-03 00:25:00,75.6,55.6,28.52,NE,45,0.0,2.0,50,0.00,,,0.00,meteohub,2013-09-03 05:25:00,
2013-09-03 00:30:00,75.2,54.7,28.52,NE,45,0.0,2.0,49,0.00,,,0.00,meteohub,2013-09-03 05:30:00,
2013-09-03 00:35:00,75.0,54.5,28.52,East,90,1.0,1.0,49,0.00,,,0.00,meteohub,2013-09-03 05:35:00,
2013-09-03 00:40:00,74.3,54.5,28.52,NW,315,1.0,1.0,50,0.00,,,0.00,meteohub,2013-09-03 05:40:00,
2013-09-03 00:45:00,74.1,54.9,28.52,NE,45,1.0,2.0,51,0.00,,,0.00,meteohub,2013-09-03 05:45:00,
2013-09-03 00:50:00,74.1,55.4,28.52,East,90,1.0,2.0,52,0.00,,,0.00,meteohub,2013-09-03 05:50:00,
2013-09-03 00:55:00,74.1,55.9,28.52,NE,45,2.0,2.0,53,0.00,,,0.00,meteohub,2013-09-03 05:55:00,
2013-09-03 01:00:00,74.1,55.4,28.52,NE,45,2.0,2.0,52,0.00,,,0.00,meteohub,2013-09-03 06:00:00,
2013-09-03 01:05:00,74.1,55.4,28.52,NE,45,0.0,2.0,52,0.00,,,0.00,meteohub,2013-09-03 06:05:00,
2013-09-03 01:10:00,73.9,55.8,28.52,North,0,1.0,2.0,53,0.00,,,0.00,meteohub,2013-09-03 06:10:00,
2013-09-03 01:15:00,73.6,55.4,28.53,SE,135,1.0,2.0,53,0.00,,,0.00,meteohub,2013-09-03 06:15:00,
2013-09-03 01:20:00,73.4,55.8,28.53,NE,45,1.0,1.0,54,0.00,,,0.00,meteohub,2013-09-03 06:20:00,
2013-09-03 01:25:00,73.4,55.8,28.53,NE,45,1.0,1.0,54,0.00,,,0.00,meteohub,2013-09-03 06:25:00,
2013-09-03 01:30:00,73.4,56.3,28.52,NE,45,1.0,1.0,55,0.00,,,0.00,meteohub,2013-09-03 06:30:00,
2013-09-03 01:35:00,73.4,56.3,28.52,SE,135,1.0,1.0,55,0.00,,,0.00,meteohub,2013-09-03 06:35:00,
2013-09-03 01:40:00,73.2,56.1,28.53,East,90,0.0,1.0,55,0.00,,,0.00,meteohub,2013-09-03 06:40:00,
2013-09-03 01:45:00,73.4,56.7,28.53,East,90,0.0,1.0,56,0.00,,,0.00,meteohub,2013-09-03 06:45:00,
2013-09-03 01:50:00,73.2,56.7,28.53,ENE,68,0.0,1.0,56,0.00,,,0.00,meteohub,2013-09-03 06:50:00,
2013-09-03 01:55:00,72.7,56.1,28.53,NE,45,0.0,1.0,56,0.00,,,0.00,meteohub,2013-09-03 06:55:00,
2013-09-03 02:00:00,72.7,56.5,28.53,ENE,68,0.0,1.0,57,0.00,,,0.00,meteohub,2013-09-03 07:00:00,
2013-09-03 02:05:00,72.5,56.5,28.53,NE,45,1.0,2.0,57,0.00,,,0.00,meteohub,2013-09-03 07:05:00,
2013-09-03 02:10:00,72.7,56.5,28.53,NE,45,1.0,2.0,57,0.00,,,0.00,meteohub,2013-09-03 07:10:00,
2013-09-03 02:15:00,72.3,56.3,28.53,East,90,1.0,2.0,57,0.00,,,0.00,meteohub,2013-09-03 07:15:00,
2013-09-03 02:20:00,72.1,56.1,28.54,East,90,0.0,1.0,57,0.00,,,0.00,meteohub,2013-09-03 07:20:00,
2013-09-03 02:25:00,71.8,55.8,28.53,East,90,0.0,1.0,57,0.00,,,0.00,meteohub,2013-09-03 07:25:00,
2013-09-03 02:30:00,71.2,55.2,28.54,NE,45,0.0,1.0,57,0.00,,,0.00,meteohub,2013-09-03 07:30:00,
2013-09-03 02:35:00,71.1,55.6,28.54,NE,45,0.0,0.0,58,0.00,,,0.00,meteohub,2013-09-03 07:35:00,
2013-09-03 02:40:00,70.9,55.8,28.54,East,90,0.0,0.0,59,0.00,,,0.00,meteohub,2013-09-03 07:40:00,
2013-09-03 02:45:00,70.5,55.9,28.54,East,90,0.0,1.0,60,0.00,,,0.00,meteohub,2013-09-03 07:45:00,
2013-09-03 02:50:00,70.9,56.3,28.54,East,90,1.0,1.0,60,0.00,,,0.00,meteohub,2013-09-03 07:50:00,
2013-09-03 02:55:00,71.1,56.5,28.54,East,90,1.0,1.0,60,0.00,,,0.00,meteohub,2013-09-03 07:55:00,
2013-09-03 03:00:00,71.2,56.7,28.54,NE,45,0.0,1.0,60,0.00,,,0.00,meteohub,2013-09-03 08:00:00,
2013-09-03 03:05:00,71.2,56.7,28.54,East,90,0.0,1.0,60,0.00,,,0.00,meteohub,2013-09-03 08:05:00,
2013-09-03 03:10:00,71.2,56.7,28.54,East,90,1.0,1.0,60,0.00,,,0.00,meteohub,2013-09-03 08:10:00,
2013-09-03 03:15:00,71.1,56.8,28.54,East,90,0.0,1.0,61,0.00,,,0.00,meteohub,2013-09-03 08:15:00,
2013-09-03 03:20:00,70.9,56.8,28.54,East,90,1.0,1.0,61,0.00,,,0.00,meteohub,2013-09-03 08:20:00,
2013-09-03 03:25:00,70.9,56.8,28.55,East,90,0.0,1.0,61,0.00,,,0.00,meteohub,2013-09-03 08:25:00,
2013-09-03 03:30:00,70.7,57.0,28.55,ENE,68,1.0,1.0,62,0.00,,,0.00,meteohub,2013-09-03 08:30:00,
2013-09-03 03:35:00,70.3,56.7,28.55,East,90,0.0,1.0,62,0.00,,,0.00,meteohub,2013-09-03 08:35:00,
2013-09-03 03:40:00,70.5,57.4,28.55,East,90,0.0,1.0,63,0.00,,,0.00,meteohub,2013-09-03 08:40:00,
2013-09-03 03:45:00,70.3,57.2,28.54,East,90,1.0,1.0,63,0.00,,,0.00,meteohub,2013-09-03 08:45:00,
2013-09-03 03:50:00,70.3,57.2,28.54,East,90,0.0,1.0,63,0.00,,,0.00,meteohub,2013-09-03 08:50:00,
2013-09-03 03:55:00,70.3,57.2,28.54,NE,45,0.0,1.0,63,0.00,,,0.00,meteohub,2013-09-03 08:55:00,
2013-09-03 04:01:00,70.2,57.4,28.54,East,90,1.0,1.0,64,0.00,,,0.00,meteohub,2013-09-03 09:01:00,
2013-09-03 04:06:00,70.2,57.9,28.54,NE,45,1.0,1.0,65,0.00,,,0.00,meteohub,2013-09-03 09:06:00,
2013-09-03 04:11:00,69.8,57.6,28.55,NE,45,2.0,2.0,65,0.00,,,0.00,meteohub,2013-09-03 09:11:00,
2013-09-03 04:16:00,69.6,57.4,28.55,NE,45,1.0,2.0,65,0.00,,,0.00,meteohub,2013-09-03 09:16:00,
2013-09-03 04:21:00,69.6,57.4,28.55,NE,45,1.0,2.0,65,0.00,,,0.00,meteohub,2013-09-03 09:21:00,
2013-09-03 04:26:00,69.4,57.6,28.54,NE,45,1.0,2.0,66,0.00,,,0.00,meteohub,2013-09-03 09:26:00,
2013-09-03 04:31:00,69.6,57.4,28.54,NE,45,2.0,2.0,65,0.00,,,0.00,meteohub,2013-09-03 09:31:00,
2013-09-03 04:36:00,69.4,57.2,28.54,NE,45,1.0,2.0,65,0.00,,,0.00,meteohub,2013-09-03 09:36:00,
2013-09-03 04:41:00,69.3,57.4,28.55,NE,45,1.0,2.0,66,0.00,,,0.00,meteohub,2013-09-03 09:41:00,
2013-09-03 04:46:00,69.3,57.9,28.54,North,0,2.0,2.0,67,0.00,,,0.00,meteohub,2013-09-03 09:46:00,
2013-09-03 04:51:00,69.3,57.9,28.54,NE,45,0.0,2.0,67,0.00,,,0.00,meteohub,2013-09-03 09:51:00,
2013-09-03 04:56:00,68.9,57.9,28.55,NE,45,0.0,2.0,68,0.00,,,0.00,meteohub,2013-09-03 09:56:00,
2013-09-03 05:01:00,68.7,57.7,28.54,NE,45,1.0,2.0,68,0.00,,,0.00,meteohub,2013-09-03 10:01:00,
2013-09-03 05:06:00,68.9,57.9,28.54,NE,45,1.0,1.0,68,0.00,,,0.00,meteohub,2013-09-03 10:06:00,
2013-09-03 05:11:00,68.9,57.9,28.54,NE,45,1.0,2.0,68,0.00,,,0.00,meteohub,2013-09-03 10:11:00,
2013-09-03 05:16:00,69.1,58.1,28.55,ENE,68,1.0,4.0,68,0.00,,,0.00,meteohub,2013-09-03 10:16:00,
2013-09-03 05:21:00,69.3,58.3,28.55,NE,45,1.0,4.0,68,0.00,,,0.00,meteohub,2013-09-03 10:21:00,
2013-09-03 05:26:00,69.1,58.1,28.54,NE,45,1.0,4.0,68,0.00,,,0.00,meteohub,2013-09-03 10:26:00,
2013-09-03 05:31:00,68.9,58.3,28.54,NE,45,1.0,2.0,69,0.00,,,0.00,meteohub,2013-09-03 10:31:00,
2013-09-03 05:36:00,68.7,58.1,28.54,East,90,1.0,2.0,69,0.00,,,0.00,meteohub,2013-09-03 10:36:00,
2013-09-03 05:41:00,68.9,58.6,28.55,NE,45,1.0,2.0,70,0.00,,,0.00,meteohub,2013-09-03 10:41:00,
2013-09-03 05:46:00,69.1,59.4,28.55,East,90,1.0,1.0,71,0.00,,,0.00,meteohub,2013-09-03 10:46:00,
2013-09-03 05:51:00,68.9,59.2,28.55,NW,315,1.0,3.0,71,0.00,,,0.00,meteohub,2013-09-03 10:51:00,
2013-09-03 05:56:00,68.7,58.5,28.55,NE,45,0.0,3.0,70,0.00,,,0.00,meteohub,2013-09-03 10:56:00,
2013-09-03 06:01:00,68.7,58.5,28.55,North,0,1.0,3.0,70,0.00,,,0.00,meteohub,2013-09-03 11:01:00,
2013-09-03 06:06:00,68.7,58.5,28.56,North,0,1.0,2.0,70,0.00,,,0.00,meteohub,2013-09-03 11:06:00,
2013-09-03 06:11:00,68.5,58.3,28.56,NE,45,1.0,2.0,70,0.00,,,0.00,meteohub,2013-09-03 11:11:00,
2013-09-03 06:16:00,68.4,58.3,28.56,East,90,1.0,2.0,70,0.00,,,0.00,meteohub,2013-09-03 11:16:00,
2013-09-03 06:21:00,68.2,58.1,28.56,East,90,1.0,2.0,70,0.00,,,0.00,meteohub,2013-09-03 11:21:00,
2013-09-03 06:26:00,68.2,58.5,28.56,NNW,338,3.0,3.0,71,0.00,,,0.00,meteohub,2013-09-03 11:26:00,
2013-09-03 06:31:00,68.4,58.6,28.56,NE,45,1.0,3.0,71,0.00,,,0.00,meteohub,2013-09-03 11:31:00,
2013-09-03 06:36:00,68.2,58.1,28.56,SE,135,1.0,3.0,70,0.00,,,0.00,meteohub,2013-09-03 11:36:00,
2013-09-03 06:41:00,68.2,58.1,28.56,North,0,1.0,3.0,70,0.00,,,0.00,meteohub,2013-09-03 11:41:00,
2013-09-03 06:46:00,68.2,58.5,28.56,NE,45,1.0,2.0,71,0.00,,,0.00,meteohub,2013-09-03 11:46:00,
2013-09-03 06:51:00,68.2,58.5,28.56,North,0,0.0,3.0,71,0.00,,,0.00,meteohub,2013-09-03 11:51:00,
2013-09-03 06:56:00,68.4,59.0,28.57,West,270,1.0,3.0,72,0.00,,,0.00,meteohub,2013-09-03 11:56:00,
2013-09-03 07:01:00,67.3,56.3,28.57,West,270,0.0,3.0,68,0.00,,,0.00,meteohub,2013-09-03 12:01:00,
2013-09-03 07:06:00,66.4,55.9,28.57,West,270,0.0,2.0,69,0.00,,,0.00,meteohub,2013-09-03 12:06:00,
2013-09-03 07:11:00,65.5,55.8,28.57,North,0,0.0,2.0,71,0.00,,,0.00,meteohub,2013-09-03 12:11:00,
2013-09-03 07:16:00,64.9,56.1,28.58,NW,315,1.0,2.0,73,0.00,,,0.00,meteohub,2013-09-03 12:16:00,
2013-09-03 07:21:00,64.8,55.9,28.58,West,270,2.0,2.0,73,0.00,,,0.00,meteohub,2013-09-03 12:21:00,
2013-09-03 07:26:00,64.4,55.6,28.58,West,270,2.0,2.0,73,0.00,,,0.00,meteohub,2013-09-03 12:26:00,
2013-09-03 07:31:00,63.9,55.0,28.58,West,270,2.0,2.0,73,0.00,,,0.00,meteohub,2013-09-03 12:31:00,
2013-09-03 07:36:00,63.5,54.7,28.58,NW,315,1.0,2.0,73,0.00,,,0.00,meteohub,2013-09-03 12:36:00,
2013-09-03 07:41:00,63.7,55.6,28.58,North,0,0.0,2.0,75,0.00,,,0.00,meteohub,2013-09-03 12:41:00,
2013-09-03 07:46:00,63.7,55.6,28.58,North,0,0.0,2.0,75,0.00,,,0.00,meteohub,2013-09-03 12:46:00,
2013-09-03 07:51:00,64.0,55.9,28.58,NW,315,1.0,1.0,75,0.00,,,0.00,meteohub,2013-09-03 12:51:00,
2013-09-03 07:56:00,64.6,56.5,28.58,North,0,0.0,1.0,75,0.00,,,0.00,meteohub,2013-09-03 12:56:00,
2013-09-03 08:01:00,65.1,56.7,28.58,North,0,0.0,1.0,74,0.00,,,0.00,meteohub,2013-09-03 13:01:00,
2013-09-03 08:06:00,65.7,57.2,28.58,West,270,2.0,2.0,74,0.00,,,0.00,meteohub,2013-09-03 13:06:00,
2013-09-03 08:11:00,66.2,57.2,28.59,West,270,2.0,2.0,73,0.00,,,0.00,meteohub,2013-09-03 13:11:00,
2013-09-03 08:16:00,66.4,57.4,28.58,North,0,0.0,2.0,73,0.00,,,0.00,meteohub,2013-09-03 13:16:00,
2013-09-03 08:21:00,67.1,57.7,28.58,NW,315,0.0,2.0,72,0.00,,,0.00,meteohub,2013-09-03 13:21:00,
2013-09-03 08:27:00,68.2,58.5,28.59,NW,315,0.0,2.0,71,0.00,,,0.00,meteohub,2013-09-03 13:27:00,
2013-09-03 08:32:00,68.7,58.1,28.59,North,0,1.0,1.0,69,0.00,,,0.00,meteohub,2013-09-03 13:32:00,
2013-09-03 08:37:00,69.6,58.6,28.59,North,0,1.0,1.0,68,0.00,,,0.00,meteohub,2013-09-03 13:37:00,
2013-09-03 08:42:00,70.9,59.7,28.60,North,0,0.0,1.0,68,0.00,,,0.00,meteohub,2013-09-03 13:42:00,
2013-09-03 08:47:00,71.6,59.7,28.59,NE,45,1.0,1.0,66,0.00,,,0.00,meteohub,2013-09-03 13:47:00,
2013-09-03 08:52:00,72.9,59.9,28.60,NE,45,1.0,1.0,64,0.00,,,0.00,meteohub,2013-09-03 13:52:00,
2013-09-03 08:57:00,73.8,60.4,28.59,North,0,2.0,2.0,63,0.00,,,0.00,meteohub,2013-09-03 13:57:00,
2013-09-03 09:02:00,74.5,60.6,28.59,NE,45,1.0,4.0,62,0.00,,,0.00,meteohub,2013-09-03 14:02:00,
2013-09-03 09:07:00,75.0,60.6,28.59,NE,45,1.0,4.0,61,0.00,,,0.00,meteohub,2013-09-03 14:07:00,
2013-09-03 09:12:00,75.6,60.6,28.59,North,0,2.0,4.0,60,0.00,,,0.00,meteohub,2013-09-03 14:12:00,
2013-09-03 09:17:00,76.5,61.5,28.59,NE,45,2.0,4.0,60,0.00,,,0.00,meteohub,2013-09-03 14:17:00,
2013-09-03 09:22:00,77.0,61.5,28.59,NE,45,1.0,4.0,59,0.00,,,0.00,meteohub,2013-09-03 14:22:00,
2013-09-03 09:27:00,77.9,61.5,28.59,NE,45,4.0,4.0,57,0.00,,,0.00,meteohub,2013-09-03 14:27:00,
2013-09-03 09:32:00,79.0,61.9,28.59,NE,45,1.0,4.0,56,0.00,,,0.00,meteohub,2013-09-03 14:32:00,
2013-09-03 09:37:00,79.5,61.3,28.59,NE,45,4.0,4.0,54,0.00,,,0.00,meteohub,2013-09-03 14:37:00,
2013-09-03 09:42:00,80.4,61.7,28.59,East,90,1.0,4.0,53,0.00,,,0.00,meteohub,2013-09-03 14:42:00,
2013-09-03 09:47:00,81.0,61.2,28.59,East,90,4.0,4.0,51,0.00,,,0.00,meteohub,2013-09-03 14:47:00,
2013-09-03 09:51:00,82.0,61.5,28.60,NE,45,2.0,4.0,50,0.00,,,0.00,meteohub,2013-09-03 14:51:00,
2013-09-03 09:56:00,82.6,61.0,28.60,NE,45,1.0,4.0,48,0.00,,,0.00,meteohub,2013-09-03 14:56:00,
2013-09-03 10:02:00,82.4,60.1,28.60,NE,45,1.0,4.0,47,0.00,,,0.00,meteohub,2013-09-03 15:02:00,
2013-09-03 10:07:00,83.3,60.4,28.60,East,90,1.0,4.0,46,0.00,,,0.00,meteohub,2013-09-03 15:07:00,
2013-09-03 10:12:00,84.0,60.4,28.60,SE,135,1.0,1.0,45,0.00,,,0.00,meteohub,2013-09-03 15:12:00,
2013-09-03 10:17:00,84.4,59.4,28.60,NE,45,1.0,1.0,43,0.00,,,0.00,meteohub,2013-09-03 15:17:00,
2013-09-03 10:22:00,84.6,59.5,28.60,North,0,2.0,2.0,43,0.00,,,0.00,meteohub,2013-09-03 15:22:00,
2013-09-03 10:27:00,84.9,59.2,28.60,East,90,1.0,2.0,42,0.00,,,0.00,meteohub,2013-09-03 15:27:00,
2013-09-03 10:32:00,85.8,58.6,28.60,East,90,1.0,2.0,40,0.00,,,0.00,meteohub,2013-09-03 15:32:00,
2013-09-03 10:37:00,86.5,56.5,28.60,North,0,6.0,6.0,36,0.00,,,0.00,meteohub,2013-09-03 15:37:00,
2013-09-03 10:42:00,86.7,56.7,28.60,SSE,158,4.0,6.0,36,0.00,,,0.00,meteohub,2013-09-03 15:42:00,
2013-09-03 10:47:00,86.9,56.7,28.60,NW,315,2.0,8.0,36,0.00,,,0.00,meteohub,2013-09-03 15:47:00,
2013-09-03 10:52:00,88.0,56.8,28.60,North,0,0.0,8.0,35,0.00,,,0.00,meteohub,2013-09-03 15:52:00,
2013-09-03 10:57:00,88.3,56.5,28.60,ENE,68,1.0,8.0,34,0.00,,,0.00,meteohub,2013-09-03 15:57:00,
2013-09-03 11:02:00,88.7,55.9,28.60,North,0,1.0,6.0,33,0.00,,,0.00,meteohub,2013-09-03 16:02:00,
2013-09-03 11:07:00,88.5,54.9,28.60,East,90,2.0,6.0,32,0.00,,,0.00,meteohub,2013-09-03 16:07:00,
2013-09-03 11:12:00,89.1,55.4,28.60,NE,45,1.0,6.0,32,0.00,,,0.00,meteohub,2013-09-03 16:12:00,
2013-09-03 11:17:00,89.2,55.6,28.59,NE,45,1.0,2.0,32,0.00,,,0.00,meteohub,2013-09-03 16:17:00,
2013-09-03 11:22:00,89.6,54.1,28.59,East,90,1.0,6.0,30,0.00,,,0.00,meteohub,2013-09-03 16:22:00,
2013-09-03 11:27:00,89.4,54.0,28.59,WSW,248,1.0,6.0,30,0.00,,,0.00,meteohub,2013-09-03 16:27:00,
2013-09-03 11:32:00,90.0,54.3,28.59,East,90,4.0,6.0,30,0.00,,,0.00,meteohub,2013-09-03 16:32:00,
2013-09-03 11:37:00,90.5,54.0,28.59,NE,45,1.0,4.0,29,0.00,,,0.00,meteohub,2013-09-03 16:37:00,
2013-09-03 11:42:00,90.0,53.4,28.59,NE,45,4.0,4.0,29,0.00,,,0.00,meteohub,2013-09-03 16:42:00,
2013-09-03 11:47:00,89.2,53.8,28.59,North,0,1.0,6.0,30,0.00,,,0.00,meteohub,2013-09-03 16:47:00,
2013-09-03 11:52:00,89.4,54.0,28.59,NE,45,1.0,6.0,30,0.00,,,0.00,meteohub,2013-09-03 16:52:00,
2013-09-03 11:57:00,90.1,53.6,28.59,SW,225,2.0,6.0,29,0.00,,,0.00,meteohub,2013-09-03 16:57:00,
2013-09-03 12:02:00,90.9,53.2,28.59,North,0,1.0,4.0,28,0.00,,,0.00,meteohub,2013-09-03 17:02:00,
2013-09-03 12:07:00,90.9,53.2,28.59,East,90,1.0,2.0,28,0.00,,,0.00,meteohub,2013-09-03 17:07:00,
2013-09-03 12:12:00,91.2,53.6,28.59,East,90,0.0,2.0,28,0.00,,,0.00,meteohub,2013-09-03 17:12:00,
2013-09-03 12:17:00,90.5,52.9,28.59,North,0,1.0,3.0,28,0.00,,,0.00,meteohub,2013-09-03 17:17:00,
2013-09-03 12:22:00,91.0,54.3,28.59,East,90,1.0,4.0,29,0.00,,,0.00,meteohub,2013-09-03 17:22:00,
2013-09-03 12:27:00,91.9,53.2,28.58,East,90,4.0,4.0,27,0.00,,,0.00,meteohub,2013-09-03 17:27:00,
2013-09-03 12:32:00,92.1,52.3,28.58,West,270,1.0,4.0,26,0.00,,,0.00,meteohub,2013-09-03 17:32:00,
2013-09-03 12:37:00,92.7,52.7,28.58,SW,225,1.0,4.0,26,0.00,,,0.00,meteohub,2013-09-03 17:37:00,
2013-09-03 12:42:00,91.9,51.1,28.58,NE,45,7.0,7.0,25,0.00,,,0.00,meteohub,2013-09-03 17:42:00,
2013-09-03 12:47:00,91.9,52.2,28.57,East,90,1.0,7.0,26,0.00,,,0.00,meteohub,2013-09-03 17:47:00,
2013-09-03 12:52:00,91.9,51.1,28.57,NE,45,1.0,7.0,25,0.00,,,0.00,meteohub,2013-09-03 17:52:00,
2013-09-03 12:57:00,92.3,52.5,28.57,NE,45,2.0,7.0,26,0.00,,,0.00,meteohub,2013-09-03 17:57:00,
2013-09-03 13:02:00,93.0,52.0,28.57,North,0,1.0,4.0,25,0.00,,,0.00,meteohub,2013-09-03 18:02:00,
2013-09-03 13:07:00,92.8,51.8,28.57,NE,45,3.0,4.0,25,0.00,,,0.00,meteohub,2013-09-03 18:07:00,
2013-09-03 13:12:00,93.4,51.3,28.56,East,90,2.0,4.0,24,0.00,,,0.00,meteohub,2013-09-03 18:12:00,
2013-09-03 13:17:00,94.3,50.7,28.56,East,90,1.0,4.0,23,0.00,,,0.00,meteohub,2013-09-03 18:17:00,
2013-09-03 13:22:00,94.1,49.5,28.56,NE,45,1.0,3.0,22,0.00,,,0.00,meteohub,2013-09-03 18:22:00,
2013-09-03 13:27:00,94.3,50.7,28.56,East,90,1.0,2.0,23,0.00,,,0.00,meteohub,2013-09-03 18:27:00,
2013-09-03 13:32:00,94.8,51.3,28.56,NE,45,1.0,4.0,23,0.00,,,0.00,meteohub,2013-09-03 18:32:00,
2013-09-03 13:37:00,95.2,50.4,28.55,North,0,1.0,4.0,22,0.00,,,0.00,meteohub,2013-09-03 18:37:00,
2013-09-03 13:42:00,95.2,49.1,28.55,North,0,7.0,7.0,21,0.00,,,0.00,meteohub,2013-09-03 18:42:00,
2013-09-03 13:47:00,93.2,48.7,28.54,South,180,3.0,8.0,22,0.00,,,0.00,meteohub,2013-09-03 18:47:00,
2013-09-03 13:52:00,93.2,49.8,28.54,SE,135,1.0,8.0,23,0.00,,,0.00,meteohub,2013-09-03 18:52:00,
2013-09-03 13:57:00,95.0,50.2,28.54,NE,45,1.0,8.0,22,0.00,,,0.00,meteohub,2013-09-03 18:57:00,
2013-09-03 14:02:00,95.0,50.2,28.54,West,270,3.0,5.0,22,0.00,,,0.00,meteohub,2013-09-03 19:02:00,
2013-09-03 14:07:00,95.4,48.0,28.54,NE,45,5.0,5.0,20,0.00,,,0.00,meteohub,2013-09-03 19:07:00,
2013-09-03 14:12:00,95.2,49.1,28.54,North,0,2.0,9.0,21,0.00,,,0.00,meteohub,2013-09-03 19:12:00,
2013-09-03 14:17:00,96.3,47.3,28.54,North,0,1.0,9.0,19,0.00,,,0.00,meteohub,2013-09-03 19:17:00,
2013-09-03 14:22:00,96.6,48.9,28.54,North,0,1.0,9.0,20,0.00,,,0.00,meteohub,2013-09-03 19:22:00,
2013-09-03 14:27:00,96.6,47.7,28.53,North,0,4.0,4.0,19,0.00,,,0.00,meteohub,2013-09-03 19:27:00,
2013-09-03 14:32:00,95.9,48.4,28.53,West,270,1.0,7.0,20,0.00,,,0.00,meteohub,2013-09-03 19:32:00,
2013-09-03 14:37:00,96.1,49.8,28.53,East,90,2.0,7.0,21,0.00,,,0.00,meteohub,2013-09-03 19:37:00,
2013-09-03 14:42:00,96.8,49.1,28.52,NE,45,1.0,7.0,20,0.00,,,0.00,meteohub,2013-09-03 19:42:00,
2013-09-03 14:47:00,97.3,48.2,28.52,NE,45,4.0,5.0,19,0.00,,,0.00,meteohub,2013-09-03 19:47:00,
2013-09-03 14:52:00,97.3,46.8,28.52,East,90,1.0,8.0,18,0.00,,,0.00,meteohub,2013-09-03 19:52:00,
2013-09-03 14:57:00,96.8,47.7,28.52,NE,45,1.0,8.0,19,0.00,,,0.00,meteohub,2013-09-03 19:57:00,
2013-09-03 15:02:00,97.2,46.6,28.51,NW,315,4.0,8.0,18,0.00,,,0.00,meteohub,2013-09-03 20:02:00,
2013-09-03 15:07:00,97.7,43.9,28.51,NE,45,8.0,9.0,16,0.00,,,0.00,meteohub,2013-09-03 20:07:00,
2013-09-03 15:12:00,97.3,45.3,28.51,North,0,1.0,9.0,17,0.00,,,0.00,meteohub,2013-09-03 20:12:00,
2013-09-03 15:17:00,98.2,42.6,28.51,NE,45,1.0,9.0,15,0.00,,,0.00,meteohub,2013-09-03 20:17:00,
2013-09-03 15:22:00,98.1,45.9,28.51,East,90,1.0,8.0,17,0.00,,,0.00,meteohub,2013-09-03 20:22:00,
2013-09-03 15:27:00,98.4,44.4,28.50,East,90,1.0,8.0,16,0.00,,,0.00,meteohub,2013-09-03 20:27:00,
2013-09-03 15:32:00,99.0,41.4,28.49,North,0,8.0,8.0,14,0.00,,,0.00,meteohub,2013-09-03 20:32:00,
2013-09-03 15:37:00,98.8,43.2,28.49,NNW,338,4.0,8.0,15,0.00,,,0.00,meteohub,2013-09-03 20:37:00,
2013-09-03 15:42:00,98.4,42.8,28.49,NE,45,9.0,9.0,15,0.00,,,0.00,meteohub,2013-09-03 20:42:00,
2013-09-03 15:47:00,98.4,44.4,28.49,NNW,338,3.0,9.0,16,0.00,,,0.00,meteohub,2013-09-03 20:47:00,
2013-09-03 15:52:00,98.8,41.4,28.49,West,270,4.0,9.0,14,0.00,,,0.00,meteohub,2013-09-03 20:52:00,
2013-09-03 15:57:00,99.7,43.9,28.48,North,0,2.0,9.0,15,0.00,,,0.00,meteohub,2013-09-03 20:57:00,
2013-09-03 16:02:00,100.2,40.5,28.49,North,0,10.0,10.0,13,0.00,,,0.00,meteohub,2013-09-03 21:02:00,
2013-09-03 16:07:00,99.0,41.4,28.49,NE,45,4.0,10.0,14,0.00,,,0.00,meteohub,2013-09-03 21:07:00,
2013-09-03 16:12:00,98.8,43.2,28.48,North,0,3.0,10.0,15,0.00,,,0.00,meteohub,2013-09-03 21:12:00,
2013-09-03 16:17:00,99.3,39.7,28.48,East,90,12.0,12.0,13,0.00,,,0.00,meteohub,2013-09-03 21:17:00,
2013-09-03 16:22:00,99.0,39.6,28.48,North,0,9.0,12.0,13,0.00,,,0.00,meteohub,2013-09-03 21:22:00,
2013-09-03 16:27:00,98.6,39.2,28.48,North,0,1.0,12.0,13,0.00,,,0.00,meteohub,2013-09-03 21:27:00,
2013-09-03 16:32:00,99.0,41.4,28.48,East,90,7.0,12.0,14,0.00,,,0.00,meteohub,2013-09-03 21:32:00,
2013-09-03 16:37:00,99.7,40.1,28.48,North,0,4.0,11.0,13,0.00,,,0.00,meteohub,2013-09-03 21:37:00,
2013-09-03 16:42:00,100.2,40.5,28.48,NW,315,4.0,8.0,13,0.00,,,0.00,meteohub,2013-09-03 21:42:00,
2013-09-03 16:47:00,99.9,38.1,28.47,North,0,2.0,8.0,12,0.00,,,0.00,meteohub,2013-09-03 21:47:00,
2013-09-03 16:53:00,99.7,40.1,28.48,North,0,1.0,7.0,13,0.00,,,0.00,meteohub,2013-09-03 21:53:00,
2013-09-03 16:57:00,99.1,37.6,28.47,North,0,9.0,9.0,12,0.00,,,0.00,meteohub,2013-09-03 21:57:00,
2013-09-03 17:02:00,98.8,39.4,28.47,North,0,2.0,11.0,13,0.00,,,0.00,meteohub,2013-09-03 22:02:00,
2013-09-03 17:07:00,99.1,37.6,28.47,East,90,3.0,11.0,12,0.00,,,0.00,meteohub,2013-09-03 22:07:00,
2013-09-03 17:12:00,100.2,38.5,28.47,NW,315,1.0,11.0,12,0.00,,,0.00,meteohub,2013-09-03 22:12:00,
2013-09-03 17:18:00,99.9,38.1,28.47,North,0,4.0,4.0,12,0.00,,,0.00,meteohub,2013-09-03 22:18:00,
2013-09-03 17:23:00,99.9,38.1,28.46,East,90,1.0,9.0,12,0.00,,,0.00,meteohub,2013-09-03 22:23:00,
2013-09-03 17:28:00,99.7,42.1,28.46,NE,45,2.0,9.0,14,0.00,,,0.00,meteohub,2013-09-03 22:28:00,
2013-09-03 17:33:00,99.1,37.6,28.46,North,0,9.0,9.0,12,0.00,,,0.00,meteohub,2013-09-03 22:33:00,
2013-09-03 17:38:00,98.8,39.4,28.47,North,0,6.0,10.0,13,0.00,,,0.00,meteohub,2013-09-03 22:38:00,
2013-09-03 17:43:00,99.0,39.6,28.46,North,0,1.0,10.0,13,0.00,,,0.00,meteohub,2013-09-03 22:43:00,
2013-09-03 17:48:00,99.1,39.7,28.47,NE,45,4.0,10.0,13,0.00,,,0.00,meteohub,2013-09-03 22:48:00,
2013-09-03 17:53:00,99.1,39.7,28.46,East,90,1.0,11.0,13,0.00,,,0.00,meteohub,2013-09-03 22:53:00,
2013-09-03 17:58:00,99.0,41.4,28.46,NE,45,1.0,11.0,14,0.00,,,0.00,meteohub,2013-09-03 22:58:00,
2013-09-03 18:03:00,98.2,39.0,28.46,SW,225,6.0,11.0,13,0.00,,,0.00,meteohub,2013-09-03 23:03:00,
2013-09-03 18:08:00,98.1,38.8,28.46,East,90,3.0,12.0,13,0.00,,,0.00,meteohub,2013-09-03 23:08:00,
2013-09-03 18:13:00,98.2,36.9,28.46,NE,45,6.0,12.0,12,0.00,,,0.00,meteohub,2013-09-03 23:13:00,
2013-09-03 18:18:00,98.2,39.0,28.46,North,0,1.0,12.0,13,0.00,,,0.00,meteohub,2013-09-03 23:18:00,
2013-09-03 18:23:00,98.4,41.0,28.45,North,0,2.0,7.0,14,0.00,,,0.00,meteohub,2013-09-03 23:23:00,
2013-09-03 18:28:00,97.7,40.5,28.45,East,90,4.0,6.0,14,0.00,,,0.00,meteohub,2013-09-03 23:28:00,
2013-09-03 18:33:00,97.7,38.5,28.45,East,90,2.0,8.0,13,0.00,,,0.00,meteohub,2013-09-03 23:33:00,
2013-09-03 18:38:00,97.5,36.3,28.45,North,0,7.0,8.0,12,0.00,,,0.00,meteohub,2013-09-03 23:38:00,
2013-09-03 18:43:00,97.0,39.9,28.45,SE,135,6.0,8.0,14,0.00,,,0.00,meteohub,2013-09-03 23:43:00,
2013-09-03 18:48:00,96.8,37.9,28.45,East,90,1.0,7.0,13,0.00,,,0.00,meteohub,2013-09-03 23:48:00,
2013-09-03 18:53:00,96.4,37.6,28.45,East,90,1.0,7.0,13,0.00,,,0.00,meteohub,2013-09-03 23:53:00,
2013-09-03 18:58:00,96.6,35.8,28.45,NE,45,1.0,6.0,12,0.00,,,0.00,meteohub,2013-09-03 23:58:00,
2013-09-03 19:03:00,96.3,35.4,28.45,NE,45,1.0,5.0,12,0.00,,,0.00,meteohub,2013-09-04 00:03:00,
2013-09-03 19:08:00,95.9,37.2,28.45,NW,315,4.0,4.0,13,0.00,,,0.00,meteohub,2013-09-04 00:08:00,
2013-09-03 19:13:00,95.7,37.0,28.45,NE,45,2.0,4.0,13,0.00,,,0.00,meteohub,2013-09-04 00:13:00,
2013-09-03 19:18:00,95.2,38.5,28.45,NE,45,1.0,4.0,14,0.00,,,0.00,meteohub,2013-09-04 00:18:00,
2013-09-03 19:23:00,94.6,39.7,28.45,East,90,2.0,7.0,15,0.00,,,0.00,meteohub,2013-09-04 00:23:00,
2013-09-03 19:28:00,94.1,39.4,28.45,NE,45,2.0,7.0,15,0.00,,,0.00,meteohub,2013-09-04 00:28:00,
2013-09-03 19:33:00,93.9,39.2,28.45,NE,45,1.0,7.0,15,0.00,,,0.00,meteohub,2013-09-04 00:33:00,
2013-09-03 19:38:00,93.4,38.8,28.45,North,0,2.0,6.0,15,0.00,,,0.00,meteohub,2013-09-04 00:38:00,
2013-09-03 19:43:00,92.5,39.7,28.45,North,0,4.0,8.0,16,0.00,,,0.00,meteohub,2013-09-04 00:43:00,
2013-09-03 19:48:00,91.8,39.2,28.46,East,90,2.0,8.0,16,0.00,,,0.00,meteohub,2013-09-04 00:48:00,
2013-09-03 19:53:00,91.2,40.3,28.45,NE,45,1.0,8.0,17,0.00,,,0.00,meteohub,2013-09-04 00:53:00,
2013-09-03 19:58:00,90.5,41.2,28.45,SE,135,1.0,4.0,18,0.00,,,0.00,meteohub,2013-09-04 00:58:00,
2013-09-03 20:03:00,89.6,40.5,28.45,East,90,1.0,2.0,18,0.00,,,0.00,meteohub,2013-09-04 01:03:00,
2013-09-03 20:08:00,89.2,40.3,28.46,NE,45,1.0,1.0,18,0.00,,,0.00,meteohub,2013-09-04 01:08:00,
2013-09-03 20:13:00,88.9,42.6,28.46,South,180,2.0,2.0,20,0.00,,,0.00,meteohub,2013-09-04 01:13:00,
2013-09-03 20:18:00,88.7,43.7,28.46,NE,45,1.0,2.0,21,0.00,,,0.00,meteohub,2013-09-04 01:18:00,
2013-09-03 20:23:00,88.2,44.6,28.46,East,90,1.0,2.0,22,0.00,,,0.00,meteohub,2013-09-04 01:23:00,
2013-09-03 20:28:00,87.8,44.2,28.47,NE,45,2.0,4.0,22,0.00,,,0.00,meteohub,2013-09-04 01:28:00,
2013-09-03 20:33:00,87.4,45.1,28.48,East,90,3.0,5.0,23,0.00,,,0.00,meteohub,2013-09-04 01:33:00,
2013-09-03 20:38:00,87.3,45.0,28.48,NE,45,2.0,6.0,23,0.00,,,0.00,meteohub,2013-09-04 01:38:00,
2013-09-03 20:43:00,86.5,45.5,28.48,East,90,4.0,6.0,24,0.00,,,0.00,meteohub,2013-09-04 01:43:00,
2013-09-03 20:48:00,86.2,46.2,28.48,East,90,3.0,6.0,25,0.00,,,0.00,meteohub,2013-09-04 01:48:00,
2013-09-03 20:53:00,86.0,47.1,28.48,NE,45,2.0,4.0,26,0.00,,,0.00,meteohub,2013-09-04 01:53:00,
2013-09-03 20:58:00,85.6,46.8,28.48,NE,45,1.0,4.0,26,0.00,,,0.00,meteohub,2013-09-04 01:58:00,
2013-09-03 21:03:00,85.6,47.8,28.48,East,90,1.0,4.0,27,0.00,,,0.00,meteohub,2013-09-04 02:03:00,
2013-09-03 21:08:00,84.9,47.1,28.49,SE,135,1.0,7.0,27,0.00,,,0.00,meteohub,2013-09-04 02:08:00,
2013-09-03 21:13:00,84.7,48.0,28.49,SE,135,2.0,7.0,28,0.00,,,0.00,meteohub,2013-09-04 02:13:00,
2013-09-03 21:18:00,84.2,48.6,28.50,East,90,2.0,5.0,29,0.00,,,0.00,meteohub,2013-09-04 02:18:00,
2013-09-03 21:23:00,83.7,48.9,28.49,East,90,1.0,4.0,30,0.00,,,0.00,meteohub,2013-09-04 02:23:00,
2013-09-03 21:28:00,83.1,49.3,28.50,SE,135,4.0,5.0,31,0.00,,,0.00,meteohub,2013-09-04 02:28:00,
2013-09-03 21:33:00,82.9,50.0,28.50,SE,135,1.0,7.0,32,0.00,,,0.00,meteohub,2013-09-04 02:33:00,
2013-09-03 21:38:00,82.4,49.6,28.50,East,90,2.0,7.0,32,0.00,,,0.00,meteohub,2013-09-04 02:38:00,
2013-09-03 21:43:00,82.0,50.2,28.51,East,90,4.0,7.0,33,0.00,,,0.00,meteohub,2013-09-04 02:43:00,
2013-09-03 21:48:00,82.0,50.2,28.51,East,90,4.0,8.0,33,0.00,,,0.00,meteohub,2013-09-04 02:48:00,
2013-09-03 21:53:00,81.5,50.4,28.51,East,90,5.0,8.0,34,0.00,,,0.00,meteohub,2013-09-04 02:53:00,
2013-09-03 21:58:00,81.3,50.2,28.51,NE,45,4.0,8.0,34,0.00,,,0.00,meteohub,2013-09-04 02:58:00,
2013-09-03 22:03:00,81.3,50.2,28.51,NE,45,1.0,5.0,34,0.00,,,0.00,meteohub,2013-09-04 03:03:00,
2013-09-03 22:08:00,81.1,50.2,28.51,East,90,1.0,5.0,34,0.00,,,0.00,meteohub,2013-09-04 03:08:00,
2013-09-03 22:13:00,81.0,50.0,28.51,East,90,2.0,8.0,34,0.00,,,0.00,meteohub,2013-09-04 03:13:00,
2013-09-03 22:18:00,80.6,50.4,28.51,NE,45,1.0,8.0,35,0.00,,,0.00,meteohub,2013-09-04 03:18:00,
2013-09-03 22:23:00,80.4,50.2,28.52,East,90,1.0,8.0,35,0.00,,,0.00,meteohub,2013-09-04 03:23:00,
2013-09-03 22:28:00,80.1,50.7,28.52,NE,45,3.0,6.0,36,0.00,,,0.00,meteohub,2013-09-04 03:28:00,
2013-09-03 22:33:00,80.2,50.9,28.52,NE,45,1.0,6.0,36,0.00,,,0.00,meteohub,2013-09-04 03:33:00,
2013-09-03 22:38:00,79.9,50.5,28.52,East,90,1.0,6.0,36,0.00,,,0.00,meteohub,2013-09-04 03:38:00,
2013-09-03 22:43:00,79.9,51.3,28.52,North,0,1.0,6.0,37,0.00,,,0.00,meteohub,2013-09-04 03:43:00,
2013-09-03 22:49:00,79.9,51.3,28.52,SE,135,1.0,4.0,37,0.00,,,0.00,meteohub,2013-09-04 03:49:00,
2013-09-03 22:54:00,79.7,51.1,28.52,East,90,1.0,4.0,37,0.00,,,0.00,meteohub,2013-09-04 03:54:00,
2013-09-03 22:59:00,79.3,51.4,28.53,SE,135,1.0,4.0,38,0.00,,,0.00,meteohub,2013-09-04 03:59:00,
2013-09-03 23:01:00,79.3,51.4,28.53,East,90,1.0,4.0,38,0.00,,,0.00,meteohub,2013-09-04 04:01:00,
2013-09-03 23:02:00,79.2,51.4,28.52,NE,45,1.0,4.0,38,0.00,,,0.00,meteohub,2013-09-04 04:02:00,
2013-09-03 23:04:00,79.0,52.0,28.53,East,90,0.0,4.0,39,0.00,,,0.00,meteohub,2013-09-04 04:04:00,
2013-09-03 23:09:00,78.8,52.5,28.53,SE,135,1.0,2.0,40,0.00,,,0.00,meteohub,2013-09-04 04:09:00,
2013-09-03 23:14:00,78.4,52.2,28.53,East,90,1.0,2.0,40,0.00,,,0.00,meteohub,2013-09-04 04:14:00,
2013-09-03 23:19:00,78.4,52.7,28.53,SE,135,1.0,1.0,41,0.00,,,0.00,meteohub,2013-09-04 04:19:00,
2013-09-03 23:24:00,78.4,52.7,28.53,West,270,1.0,1.0,41,0.00,,,0.00,meteohub,2013-09-04 04:24:00,
2013-09-03 23:29:00,78.3,53.2,28.53,NE,45,1.0,1.0,42,0.00,,,0.00,meteohub,2013-09-04 04:29:00,
2013-09-03 23:34:00,78.1,53.1,28.53,North,0,1.0,3.0,42,0.00,,,0.00,meteohub,2013-09-04 04:34:00,
2013-09-03 23:39:00,78.1,53.1,28.53,East,90,1.0,3.0,42,0.00,,,0.00,meteohub,2013-09-04 04:39:00,
2013-09-03 23:45:00,77.9,53.6,28.52,NE,45,1.0,1.0,43,0.00,,,0.00,meteohub,2013-09-04 04:45:00,
2013-09-03 23:50:00,77.7,53.4,28.53,East,90,1.0,1.0,43,0.00,,,0.00,meteohub,2013-09-04 04:50:00,
2013-09-03 23:55:00,77.5,53.2,28.53,NE,45,1.0,2.0,43,0.00,,,0.00,meteohub,2013-09-04 04:55:00,